Gilmore, Arkansas
Current Conditions -  °F | °C
As of 8:53 PM on Monday 26 Jan 2015 (Local Time) from KAWM Reporting Station
Clear Clear  
Wind Chill: 37°   Ceiling: Unl
Heat Index: 41°   Visibility: 10mi
Dew Point: 34°   Wind: 6mph
Humidity: 76%   Direction: 200°SSW
Pressure: 29.95"   Gusts: NA
Location:  35.41°N, 90.28°W
Report Text: KAWM 270253Z AUTO 20005KT 10SM CLR 05/01 A2995 RMK AO2 SLP144 T00500011 50002
Loading
Personal Weather Stations






























Interactive Weather Map New forecast layout! Learn more

10-Day Weather Forecast

Advertisements
Track Severe Weather on mobile